createdAt,value
2019-02-14T00:02:06.335Z,136.07
2019-02-14T00:04:33.184Z,134.65
2019-02-14T00:06:59.924Z,135.50
2019-02-14T00:09:26.677Z,133.93
2019-02-14T00:11:54.444Z,136.55
2019-02-14T00:14:21.302Z,135.20
2019-02-14T00:16:48.166Z,135.75
2019-02-14T00:19:15.031Z,135.18
2019-02-14T00:21:41.779Z,134.75
2019-02-14T00:24:08.563Z,134.45
2019-02-14T00:26:35.549Z,134.52
2019-02-14T00:29:02.519Z,133.97
2019-02-14T00:31:29.258Z,133.47
2019-02-14T00:33:56.032Z,134.72
2019-02-14T00:36:22.768Z,135.72
2019-02-14T00:38:49.634Z,135.90
2019-02-14T00:41:16.498Z,134.80
2019-02-14T00:43:43.257Z,132.90
2019-02-14T00:46:10.213Z,132.95
2019-02-14T00:48:37.023Z,132.18
2019-02-14T00:51:03.909Z,132.40
2019-02-14T00:53:30.786Z,133.00
2019-02-14T00:55:57.649Z,133.60
2019-02-14T00:58:24.523Z,132.97
2019-02-14T01:00:52.297Z,134.30
2019-02-14T01:03:19.075Z,134.35
2019-02-14T01:05:45.887Z,134.80
2019-02-14T01:08:12.628Z,137.05
2019-02-14T01:10:39.378Z,135.45
2019-02-14T01:13:06.128Z,135.63
2019-02-14T01:15:36.188Z,133.70
2019-02-14T01:18:03.075Z,133.18
2019-02-14T01:20:33.524Z,133.55
2019-02-14T01:23:00.262Z,133.60
2019-02-14T01:25:27.148Z,133.93
2019-02-14T01:27:55.308Z,135.93
2019-02-14T01:30:22.107Z,134.32
2019-02-14T01:32:49.343Z,134.25
2019-02-14T01:35:16.212Z,135.95
2019-02-14T01:37:42.947Z,134.82
2019-02-14T01:40:09.967Z,134.72
2019-02-14T01:42:36.920Z,136.80
2019-02-14T01:45:04.753Z,135.70
2019-02-14T01:47:31.726Z,135.30
2019-02-14T01:49:58.572Z,135.72
2019-02-14T01:52:30.438Z,134.72
2019-02-14T01:54:59.421Z,136.12
2019-02-14T01:57:26.385Z,136.07
2019-02-14T01:59:53.164Z,134.10
2019-02-14T02:02:19.969Z,133.32
2019-02-14T02:04:46.797Z,133.32
2019-02-14T02:07:14.634Z,132.45
2019-02-14T02:09:41.643Z,134.07
2019-02-14T02:12:08.502Z,131.57
2019-02-14T02:14:35.241Z,133.15
2019-02-14T02:17:01.988Z,133.10
2019-02-14T02:19:28.918Z,134.27
2019-02-14T02:21:55.795Z,133.85
2019-02-14T02:24:22.534Z,133.63
2019-02-14T02:26:49.359Z,134.15
2019-02-14T02:29:16.104Z,133.50
2019-02-14T02:31:42.843Z,134.32
2019-02-14T02:34:09.931Z,136.00
2019-02-14T02:36:36.813Z,136.32
2019-02-14T02:39:05.788Z,135.60
2019-02-14T02:41:33.431Z,135.05
2019-02-14T02:44:00.389Z,135.25
2019-02-14T02:46:27.301Z,135.95
2019-02-14T02:48:53.999Z,134.30
2019-02-14T02:51:20.738Z,134.00
2019-02-14T02:53:47.543Z,134.78
2019-02-14T02:56:14.314Z,133.95
2019-02-14T02:58:41.150Z,136.15
2019-02-14T03:01:07.995Z,135.22
2019-02-14T03:03:34.839Z,134.93
2019-02-14T03:06:10.212Z,133.27
2019-02-14T03:08:30.468Z,133.87
2019-02-14T03:10:57.309Z,133.78
2019-02-14T03:13:24.199Z,133.93
2019-02-14T03:15:52.373Z,132.90
2019-02-14T03:18:19.307Z,132.60
2019-02-14T03:20:46.078Z,134.18
2019-02-14T03:23:14.029Z,134.12
2019-02-14T03:25:40.873Z,132.25
2019-02-14T03:28:07.606Z,132.40
2019-02-14T03:30:34.602Z,133.40
2019-02-14T03:33:01.436Z,133.30
2019-02-14T03:35:28.170Z,132.70
2019-02-14T03:37:55.050Z,132.60
2019-02-14T03:40:21.880Z,133.97
2019-02-14T03:42:48.641Z,133.52
2019-02-14T03:45:15.740Z,133.40
2019-02-14T03:47:42.503Z,132.65
2019-02-14T03:50:10.538Z,132.97
2019-02-14T03:52:37.422Z,133.00
2019-02-14T03:55:04.361Z,132.87
2019-02-14T03:57:31.215Z,135.18
2019-02-14T03:59:57.984Z,133.97
2019-02-14T04:02:24.730Z,134.67
2019-02-14T04:04:51.485Z,133.65
2019-02-14T04:07:18.382Z,132.87
2019-02-14T04:09:45.124Z,134.27
2019-02-14T04:12:11.901Z,132.87
2019-02-14T04:14:38.652Z,132.47
2019-02-14T04:17:05.501Z,133.85
2019-02-14T04:19:32.373Z,132.93
2019-02-14T04:21:59.166Z,133.32
2019-02-14T04:24:26.010Z,134.03
2019-02-14T04:26:52.738Z,134.05
2019-02-14T04:29:19.613Z,134.97
2019-02-14T04:31:46.340Z,134.18
2019-02-14T04:34:13.194Z,133.97
2019-02-14T04:36:40.016Z,135.35
2019-02-14T04:39:07.403Z,136.22
2019-02-14T04:41:34.248Z,134.37
2019-02-14T04:44:01.029Z,134.07
2019-02-14T04:46:27.773Z,134.03
2019-02-14T04:48:54.505Z,135.22
2019-02-14T04:51:21.699Z,134.30
2019-02-14T04:53:48.655Z,134.25
2019-02-14T04:56:15.414Z,133.82
2019-02-14T04:58:42.381Z,133.05
2019-02-14T05:01:09.220Z,135.60
2019-02-14T05:03:35.995Z,134.82
2019-02-14T05:06:02.866Z,134.27
2019-02-14T05:08:29.705Z,135.00
2019-02-14T05:10:56.445Z,135.03
2019-02-14T05:13:23.193Z,134.78
2019-02-14T05:15:50.047Z,135.57
2019-02-14T05:18:17.893Z,132.93
2019-02-14T05:20:44.687Z,134.32
2019-02-14T05:23:11.533Z,136.12
2019-02-14T05:25:38.538Z,133.20
2019-02-14T05:28:06.589Z,141.30
2019-02-14T05:30:33.499Z,146.53
2019-02-14T05:33:02.389Z,136.25
2019-02-14T05:35:31.791Z,135.65
2019-02-14T05:37:58.749Z,134.30
2019-02-14T05:40:25.506Z,134.90
2019-02-14T05:42:52.605Z,136.72
2019-02-14T05:45:19.338Z,135.93
2019-02-14T05:47:47.216Z,134.70
2019-02-14T05:50:14.036Z,135.95
2019-02-14T05:52:40.820Z,135.78
2019-02-14T05:55:08.690Z,134.20
2019-02-14T05:57:35.588Z,135.57
2019-02-14T06:00:04.463Z,135.60
2019-02-14T06:02:32.235Z,136.50
2019-02-14T06:04:59.465Z,137.70
2019-02-14T06:07:26.232Z,137.18
2019-02-14T06:09:53.105Z,137.57
2019-02-14T06:12:20.162Z,138.35
2019-02-14T06:14:47.114Z,137.07
2019-02-14T06:17:14.080Z,137.12
2019-02-14T06:19:41.089Z,139.15
2019-02-14T06:22:07.840Z,138.60
2019-02-14T06:24:34.801Z,137.90
2019-02-14T06:27:01.672Z,137.47
2019-02-14T06:29:28.394Z,137.15
2019-02-14T06:31:55.263Z,136.03
2019-02-14T06:34:22.273Z,134.43
2019-02-14T06:36:49.235Z,137.05
2019-02-14T06:39:16.124Z,143.50
2019-02-14T06:41:43.012Z,133.52
2019-02-14T06:44:09.774Z,138.72
2019-02-14T06:46:36.799Z,133.80
2019-02-14T06:49:03.655Z,133.52
2019-02-14T06:51:30.431Z,135.25
2019-02-14T06:53:57.413Z,135.55
2019-02-14T06:56:24.413Z,136.07
2019-02-14T06:58:51.317Z,134.50
2019-02-14T07:01:18.077Z,134.40
2019-02-14T07:03:44.975Z,132.47
2019-02-14T07:06:11.921Z,134.40
2019-02-14T07:08:38.684Z,134.90
2019-02-14T07:11:05.573Z,134.82
2019-02-14T07:13:32.317Z,135.05
2019-02-14T07:15:59.177Z,135.45
2019-02-14T07:18:25.993Z,135.22
2019-02-14T07:20:52.732Z,136.40
2019-02-14T07:23:19.604Z,137.30
2019-02-14T07:25:46.346Z,135.95
2019-02-14T07:28:13.140Z,140.25
2019-02-14T07:30:39.981Z,136.92
2019-02-14T07:33:06.932Z,136.62
2019-02-14T07:35:33.893Z,136.47
2019-02-14T07:38:00.647Z,137.77
2019-02-14T07:40:27.455Z,136.65
2019-02-14T07:42:54.318Z,139.95
2019-02-14T07:45:21.073Z,137.90
2019-02-14T07:47:47.953Z,139.43
2019-02-14T07:50:14.709Z,139.28
2019-02-14T07:52:41.486Z,139.37
2019-02-14T07:55:08.576Z,137.92
2019-02-14T07:57:35.654Z,137.12
2019-02-14T08:00:03.059Z,139.25
2019-02-14T08:02:30.361Z,139.12
2019-02-14T08:04:57.316Z,137.95
2019-02-14T08:07:24.092Z,138.97
2019-02-14T08:09:50.896Z,142.10
2019-02-14T08:12:17.757Z,139.70
2019-02-14T08:14:44.734Z,139.85
2019-02-14T08:17:11.739Z,140.35
2019-02-14T08:19:38.472Z,143.07
2019-02-14T08:22:05.426Z,142.53
2019-02-14T08:24:32.205Z,140.97
2019-02-14T08:26:59.115Z,141.50
2019-02-14T08:29:25.977Z,145.38
2019-02-14T08:31:52.877Z,144.75
2019-02-14T08:34:19.633Z,146.22
2019-02-14T08:36:46.604Z,147.75
2019-02-14T08:39:13.358Z,146.68
2019-02-14T08:41:40.312Z,147.87
2019-02-14T08:44:07.154Z,149.12
2019-02-14T08:46:33.945Z,150.68
2019-02-14T08:49:00.899Z,151.15
2019-02-14T08:51:27.755Z,149.62
2019-02-14T08:53:54.573Z,150.75
2019-02-14T08:56:21.428Z,151.02
2019-02-14T08:58:48.309Z,151.35
2019-02-14T09:01:15.172Z,150.53
2019-02-14T09:03:41.909Z,149.50
2019-02-14T09:06:08.840Z,150.45
2019-02-14T09:08:35.644Z,150.57
2019-02-14T09:11:02.518Z,148.50
2019-02-14T09:13:29.269Z,149.95
2019-02-14T09:15:56.206Z,150.25
2019-02-14T09:18:23.067Z,151.22
2019-02-14T09:20:51.881Z,151.63
2019-02-14T09:23:20.282Z,153.97
2019-02-14T09:25:47.017Z,151.93
2019-02-14T09:28:13.861Z,152.53
2019-02-14T09:30:40.664Z,153.75
2019-02-14T09:33:07.402Z,152.60
2019-02-14T09:35:34.147Z,152.57
2019-02-14T09:38:03.514Z,153.35
2019-02-14T09:40:29.674Z,155.03
2019-02-14T09:42:56.435Z,153.70
2019-02-14T09:45:23.224Z,154.05
2019-02-14T09:47:49.952Z,155.37
2019-02-14T09:50:16.708Z,154.95
2019-02-14T09:52:43.723Z,155.82
2019-02-14T09:55:10.466Z,157.70
2019-02-14T09:57:37.448Z,156.37
2019-02-14T10:00:06.040Z,156.40
2019-02-14T10:02:32.951Z,156.97
2019-02-14T10:04:59.705Z,153.55
2019-02-14T10:07:26.634Z,152.80
2019-02-14T10:09:53.585Z,158.10
2019-02-14T10:12:20.546Z,153.30
2019-02-14T10:14:47.322Z,154.03
2019-02-14T10:17:22.058Z,152.85
2019-02-14T10:19:42.814Z,152.65
2019-02-14T10:22:10.985Z,154.87
2019-02-14T10:24:37.715Z,155.03
2019-02-14T10:27:04.448Z,155.20
2019-02-14T10:29:31.312Z,156.35
2019-02-14T10:31:58.042Z,155.55
2019-02-14T10:34:24.973Z,155.55
2019-02-14T10:36:52.588Z,156.32
2019-02-14T10:39:19.585Z,156.67
2019-02-14T10:41:46.387Z,159.30
2019-02-14T10:44:13.416Z,159.32
2019-02-14T10:46:40.307Z,161.32
2019-02-14T10:49:08.421Z,161.15
2019-02-14T10:51:35.423Z,162.97
2019-02-14T10:54:04.370Z,163.22
2019-02-14T10:56:31.109Z,161.50
2019-02-14T10:58:59.791Z,161.77
2019-02-14T11:01:26.673Z,161.65
2019-02-14T11:03:53.418Z,163.50
2019-02-14T11:06:20.211Z,163.90
2019-02-14T11:08:47.066Z,159.95
2019-02-14T11:11:13.831Z,163.47
2019-02-14T11:13:40.648Z,163.07
2019-02-14T11:16:09.635Z,161.10
2019-02-14T11:18:43.972Z,161.30
2019-02-14T11:21:05.295Z,163.95
2019-02-14T11:23:32.250Z,165.20
2019-02-14T11:25:59.222Z,163.47
2019-02-14T11:28:26.045Z,162.75
2019-02-14T11:30:52.895Z,162.68
2019-02-14T11:33:19.774Z,162.22
2019-02-14T11:35:46.726Z,162.18
2019-02-14T11:38:13.521Z,169.65
2019-02-14T11:40:40.261Z,161.30
2019-02-14T11:43:07.387Z,161.77
2019-02-14T11:45:34.133Z,160.10
2019-02-14T11:48:01.103Z,160.18
2019-02-14T11:50:27.916Z,161.18
2019-02-14T11:52:54.769Z,161.00
2019-02-14T11:55:22.724Z,163.40
2019-02-14T11:57:49.544Z,162.22
2019-02-14T12:00:19.533Z,161.65
2019-02-14T12:02:54.729Z,165.80
2019-02-14T12:05:15.099Z,158.63
2019-02-14T12:07:41.964Z,160.67
2019-02-14T12:10:13.361Z,159.35
2019-02-14T12:12:37.941Z,160.90
2019-02-14T12:15:04.977Z,161.37
2019-02-14T12:17:31.828Z,160.25
2019-02-14T12:19:58.619Z,158.37
2019-02-14T12:22:25.581Z,158.57
2019-02-14T12:24:52.492Z,160.57
2019-02-14T12:27:19.266Z,161.47
2019-02-14T12:29:46.009Z,161.18
2019-02-14T12:32:12.782Z,166.70
2019-02-14T12:34:39.691Z,159.67
2019-02-14T12:37:06.485Z,161.60
2019-02-14T12:39:33.471Z,161.92
2019-02-14T12:42:00.476Z,161.80
2019-02-14T12:44:27.244Z,162.55
2019-02-14T12:46:54.097Z,165.28
2019-02-14T12:49:20.865Z,165.85
2019-02-14T12:51:47.830Z,165.12
2019-02-14T12:54:14.587Z,163.57
2019-02-14T12:56:41.344Z,164.28
2019-02-14T12:59:08.201Z,163.10
2019-02-14T13:01:35.193Z,163.57
2019-02-14T13:04:02.079Z,163.62
2019-02-14T13:06:29.048Z,163.22
2019-02-14T13:08:55.773Z,161.95
2019-02-14T13:11:22.678Z,162.77
2019-02-14T13:13:50.683Z,163.05
2019-02-14T13:16:18.201Z,163.22
2019-02-14T13:18:45.120Z,162.25
2019-02-14T13:21:11.874Z,161.77
2019-02-14T13:23:38.635Z,162.32
2019-02-14T13:26:05.511Z,163.40
2019-02-14T13:28:32.381Z,176.70
2019-02-14T13:30:59.339Z,165.73
2019-02-14T13:33:26.319Z,163.77
2019-02-14T13:35:53.175Z,163.70
2019-02-14T13:38:19.925Z,163.05
2019-02-14T13:40:46.937Z,161.10
2019-02-14T13:43:13.825Z,162.10
2019-02-14T13:45:40.599Z,160.07
2019-02-14T13:48:11.357Z,160.12
2019-02-14T13:50:38.354Z,172.72
2019-02-14T13:53:05.172Z,163.43
2019-02-14T13:55:33.871Z,162.07
2019-02-14T13:58:00.893Z,165.65
2019-02-14T14:00:27.746Z,166.05
2019-02-14T14:02:54.838Z,163.03
2019-02-14T14:05:28.408Z,165.07
2019-02-14T14:07:55.861Z,167.75
2019-02-14T14:10:22.766Z,164.97
2019-02-14T14:12:49.736Z,163.00
2019-02-14T14:15:16.725Z,165.95
2019-02-14T14:17:43.537Z,169.43
2019-02-14T14:20:10.435Z,166.05
2019-02-14T14:22:37.460Z,162.92
2019-02-14T14:25:07.216Z,160.88
2019-02-14T14:27:33.988Z,161.10
2019-02-14T14:30:03.045Z,162.43
2019-02-14T14:32:31.611Z,161.00
2019-02-14T14:34:58.489Z,164.18
2019-02-14T14:37:25.257Z,158.97
2019-02-14T14:40:01.423Z,162.95
2019-02-14T14:42:55.472Z,159.57
2019-02-14T14:45:33.028Z,162.25
2019-02-14T14:48:00.204Z,164.95
2019-02-14T14:50:26.947Z,160.00
2019-02-14T14:52:53.820Z,162.05
2019-02-14T14:55:20.615Z,165.28
2019-02-14T14:57:47.476Z,164.18
2019-02-14T15:00:14.222Z,162.50
2019-02-14T15:02:41.124Z,164.88
2019-02-14T15:05:07.858Z,166.07
2019-02-14T15:07:35.041Z,162.20
2019-02-14T15:10:02.037Z,162.10
2019-02-14T15:12:30.675Z,162.65
2019-02-14T15:14:59.884Z,161.47
2019-02-14T15:17:28.013Z,160.60
2019-02-14T15:19:55.000Z,159.93
2019-02-14T15:22:22.003Z,163.40
2019-02-14T15:24:48.789Z,170.15
2019-02-14T15:27:15.640Z,161.10
2019-02-14T15:29:42.388Z,174.38
2019-02-14T15:32:09.260Z,171.98
2019-02-14T15:34:36.012Z,168.37
2019-02-14T15:37:03.352Z,160.28
2019-02-14T15:39:30.168Z,169.20
2019-02-14T15:41:56.969Z,180.80
2019-02-14T15:44:23.720Z,175.10
2019-02-14T15:46:56.874Z,162.40
2019-02-14T15:49:29.911Z,160.63
2019-02-14T15:51:59.331Z,165.97
2019-02-14T15:54:26.131Z,201.65
2019-02-14T15:56:53.651Z,164.03
2019-02-14T15:59:23.764Z,202.80
2019-02-14T16:01:50.714Z,197.45
2019-02-14T16:04:17.716Z,165.55
2019-02-14T16:06:44.483Z,168.05
2019-02-14T16:09:12.283Z,162.95
2019-02-14T16:11:40.085Z,155.93
2019-02-14T16:14:07.081Z,157.35
2019-02-14T16:16:33.941Z,154.95
2019-02-14T16:19:00.683Z,156.15
2019-02-14T16:21:29.383Z,154.50
2019-02-14T16:23:56.499Z,158.78
2019-02-14T16:26:23.385Z,158.32
2019-02-14T16:28:51.742Z,158.15
2019-02-14T16:31:18.467Z,156.43
2019-02-14T16:33:45.305Z,157.03
2019-02-14T16:36:12.340Z,156.70
2019-02-14T16:38:39.117Z,158.78
2019-02-14T16:41:05.960Z,157.15
2019-02-14T16:43:32.885Z,159.57
2019-02-14T16:45:59.732Z,159.90
2019-02-14T16:48:26.573Z,158.03
2019-02-14T16:50:53.379Z,158.27
2019-02-14T16:53:20.191Z,156.87
2019-02-14T16:55:47.822Z,156.75
2019-02-14T16:58:14.713Z,156.45
2019-02-14T17:00:41.571Z,158.63
2019-02-14T17:03:08.321Z,154.42
2019-02-14T17:05:35.123Z,156.93
2019-02-14T17:08:01.985Z,153.80
2019-02-14T17:10:36.812Z,152.93
2019-02-14T17:13:03.454Z,154.18
2019-02-14T17:15:31.806Z,154.82
2019-02-14T17:17:58.783Z,158.47
2019-02-14T17:20:25.812Z,157.57
2019-02-14T17:22:52.798Z,154.80
2019-02-14T17:25:19.706Z,154.40
2019-02-14T17:27:46.531Z,153.23
2019-02-14T17:30:13.519Z,154.05
2019-02-14T17:32:40.297Z,155.87
2019-02-14T17:35:07.096Z,153.12
2019-02-14T17:37:33.945Z,153.27
2019-02-14T17:40:00.708Z,153.23
2019-02-14T17:42:27.462Z,165.50
2019-02-14T17:44:54.472Z,159.18
2019-02-14T17:47:21.400Z,153.85
2019-02-14T17:49:48.398Z,153.40
2019-02-14T17:52:15.872Z,153.60
2019-02-14T17:54:44.671Z,163.50
2019-02-14T17:57:11.541Z,152.25
2019-02-14T17:59:38.295Z,151.60
2019-02-14T18:02:05.301Z,154.20
2019-02-14T18:04:32.336Z,154.68
2019-02-14T18:06:59.176Z,154.78
2019-02-14T18:09:26.044Z,156.05
2019-02-14T18:11:55.063Z,153.20
2019-02-14T18:14:21.927Z,154.85
2019-02-14T18:16:48.828Z,151.80
2019-02-14T18:19:16.420Z,152.07
2019-02-14T18:21:46.379Z,155.27
2019-02-14T18:24:13.471Z,153.90
2019-02-14T18:26:40.375Z,156.55
2019-02-14T18:29:07.262Z,154.78
2019-02-14T18:31:34.129Z,150.85
2019-02-14T18:34:00.917Z,150.35
2019-02-14T18:36:27.878Z,152.02
2019-02-14T18:38:54.865Z,147.80
2019-02-14T18:41:21.634Z,150.78
2019-02-14T18:43:48.609Z,150.20
2019-02-14T18:46:15.504Z,149.40
2019-02-14T18:48:42.466Z,151.37
2019-02-14T18:51:09.350Z,150.05
2019-02-14T18:53:36.190Z,149.27
2019-02-14T18:56:02.944Z,147.98
2019-02-14T18:58:30.180Z,147.47
2019-02-14T19:00:57.289Z,149.57
2019-02-14T19:03:24.323Z,148.80
2019-02-14T19:05:51.218Z,149.57
2019-02-14T19:08:18.573Z,147.50
2019-02-14T19:10:45.420Z,150.25
2019-02-14T19:13:12.347Z,149.02
2019-02-14T19:15:39.383Z,146.82
2019-02-14T19:18:06.816Z,148.53
2019-02-14T19:20:33.811Z,148.05
2019-02-14T19:23:00.783Z,152.47
2019-02-14T19:25:29.561Z,147.80
2019-02-14T19:27:56.316Z,149.53
2019-02-14T19:30:23.332Z,147.45
2019-02-14T19:32:50.321Z,150.90
2019-02-14T19:35:23.223Z,151.22
2019-02-14T19:37:45.957Z,149.25
2019-02-14T19:40:12.831Z,150.65
2019-02-14T19:42:41.983Z,151.72
2019-02-14T19:45:08.871Z,149.20
2019-02-14T19:47:35.948Z,153.00
2019-02-14T19:50:05.359Z,151.22
2019-02-14T19:52:33.377Z,151.05
2019-02-14T19:55:00.343Z,157.62
2019-02-14T19:57:27.417Z,154.42
2019-02-14T19:59:54.455Z,149.42
2019-02-14T20:02:21.322Z,150.82
2019-02-14T20:04:48.118Z,148.32
2019-02-14T20:07:15.040Z,148.38
2019-02-14T20:09:42.014Z,147.22
2019-02-14T20:12:08.884Z,148.87
2019-02-14T20:14:35.788Z,148.57
2019-02-14T20:17:03.159Z,147.98
2019-02-14T20:19:30.025Z,150.68
2019-02-14T20:21:56.885Z,152.87
2019-02-14T20:24:23.743Z,156.20
2019-02-14T20:26:50.692Z,146.02
2019-02-14T20:29:17.466Z,145.70
2019-02-14T20:31:47.255Z,145.30
2019-02-14T20:34:14.248Z,146.07
2019-02-14T20:36:41.104Z,149.07
2019-02-14T20:39:08.129Z,150.30
2019-02-14T20:41:35.292Z,147.53
2019-02-14T20:44:02.340Z,146.32
2019-02-14T20:46:29.192Z,146.90
2019-02-14T20:48:56.157Z,146.50
2019-02-14T20:51:23.087Z,145.40
2019-02-14T20:53:50.077Z,145.10
2019-02-14T20:56:17.090Z,144.68
2019-02-14T20:58:44.067Z,144.68
2019-02-14T21:01:11.020Z,143.05
2019-02-14T21:03:38.393Z,143.80
2019-02-14T21:06:05.454Z,143.95
2019-02-14T21:08:32.384Z,141.40
2019-02-14T21:10:59.342Z,142.37
2019-02-14T21:13:29.033Z,141.18
2019-02-14T21:15:58.173Z,142.18
2019-02-14T21:18:25.039Z,142.47
2019-02-14T21:20:51.949Z,142.80
2019-02-14T21:23:18.818Z,143.32
2019-02-14T21:25:45.781Z,141.80
2019-02-14T21:28:12.750Z,142.25
2019-02-14T21:30:39.716Z,142.53
2019-02-14T21:33:06.623Z,141.57
2019-02-14T21:35:33.738Z,142.95
2019-02-14T21:38:00.602Z,141.45
2019-02-14T21:40:27.630Z,143.80
2019-02-14T21:42:54.685Z,142.70
2019-02-14T21:45:21.546Z,143.72
2019-02-14T21:47:48.320Z,144.55
2019-02-14T21:50:15.516Z,143.05
2019-02-14T21:52:42.563Z,143.62
2019-02-14T21:55:09.340Z,143.35
2019-02-14T21:57:36.343Z,143.00
2019-02-14T22:00:04.236Z,144.02
2019-02-14T22:02:31.550Z,142.50
2019-02-14T22:04:58.467Z,143.87
2019-02-14T22:07:25.434Z,142.77
2019-02-14T22:09:52.332Z,145.95
2019-02-14T22:12:38.347Z,142.53
2019-02-14T22:14:48.089Z,143.43
2019-02-14T22:17:14.841Z,145.00
2019-02-14T22:19:42.977Z,142.45
2019-02-14T22:22:10.054Z,142.45
2019-02-14T22:24:36.796Z,142.55
2019-02-14T22:27:03.809Z,143.05
2019-02-14T22:29:30.920Z,142.93
2019-02-14T22:31:57.904Z,145.07
2019-02-14T22:34:24.693Z,144.32
2019-02-14T22:36:51.446Z,145.60
2019-02-14T22:39:18.313Z,144.40
2019-02-14T22:41:45.305Z,145.22
2019-02-14T22:44:12.198Z,143.97
2019-02-14T22:46:39.096Z,145.12
2019-02-14T22:49:06.114Z,144.30
2019-02-14T22:51:33.019Z,163.18
2019-02-14T22:53:59.760Z,145.92
2019-02-14T22:56:26.669Z,146.13
2019-02-14T22:58:53.639Z,145.10
2019-02-14T23:01:20.651Z,144.28
2019-02-14T23:03:47.636Z,146.72
2019-02-14T23:06:14.508Z,143.57
2019-02-14T23:08:41.262Z,145.50
2019-02-14T23:11:08.162Z,144.47
2019-02-14T23:13:35.147Z,143.75
2019-02-14T23:16:02.137Z,144.17
2019-02-14T23:18:28.932Z,142.93
2019-02-14T23:20:55.799Z,144.20
2019-02-14T23:23:22.696Z,144.35
2019-02-14T23:25:49.623Z,142.95
2019-02-14T23:28:16.766Z,144.97
2019-02-14T23:30:43.627Z,141.85
2019-02-14T23:33:10.400Z,142.82
2019-02-14T23:35:39.213Z,143.40
2019-02-14T23:38:05.980Z,142.35
2019-02-14T23:40:32.877Z,142.50
2019-02-14T23:43:04.732Z,143.40
2019-02-14T23:45:28.374Z,141.62
2019-02-14T23:47:55.262Z,141.10
2019-02-14T23:50:22.006Z,141.55
2019-02-14T23:52:48.880Z,142.43
2019-02-14T23:55:15.756Z,142.68
2019-02-14T23:57:42.748Z,142.60
